Terminal Aerodrome Forecast
Issued by NWS Springfield, MO

Home | Current Version | Previous Version | Text Only | Print | Product List | Glossary On
Versions: 1 2 3 4 5 6 7 8 9 10 11 12 13 14 15
696
FTUS43 KSGF 271120
TAFSGF
TAF
KSGF 271120Z 2712/2812 17005KT P6SM FEW250 PROB30 2721/2724 5SM
      TSRA BKN040CB
     FM280000 VRB04KT P6SM SKC=

USA.gov is the U.S. government's official web portal to all federal, state and local government web resources and services.